Terminal Aerodrome Forecast
Issued by NWS Knoxville/Tri Cities, TN

Home | Current Version | Previous Version | Text Only | Print | Product List | Glossary On
Versions: 1 2 3 4 5 6 7 8 9 10 11 12 13 14 15 16 17 18 19 20 21 22 23 24 25 26
000
FTUS44 KMRX 090605 AAA
TAFCHA
TAF AMD
KCHA 090605Z 0906/1006 16007KT P6SM OVC028 WS020/16039KT
     FM090800 18006KT P6SM VCSH OVC025 WS020/16040KT
     FM091200 19007KT P6SM VCSH OVC015 WS020/17041KT
     FM091700 19012G20KT P6SM VCSH OVC020
     FM100100 19007KT P6SM -SHRA SCT007 OVC012=

USA.gov is the U.S. government's official web portal to all federal, state and local government web resources and services.